Latest Weather Observations for Mount Crawford

IDS60801

Issued at 8:01 am CST Sunday 23 July 2017 (issued every 30 minutes, with the page automatically refreshed every 10 minutes)

About weather observations | Map of weather stations | Latest weather observations for SA | Other Formats
Station Details ID: 023878 Name: MOUNT CRAWFORD AWS Lat: -34.73 Lon: 138.93 Height: 525.0 m
Data from the previous 72 hours. | See also: Recent months at Mount Crawford
Date/Time
CST
Temp
°C
App
Temp
°C
Dew
Point
°C
Rel
Hum
%
Delta-T
°C
Wind Press
QNH
hPa
Press
MSL
hPa
Rain since
9am
mm
Dir  Spd
km/h
Gust
km/h
Spd
kts
Gust
kts
23/08:00am 8.6 2.2 8.6 100 0.0 WNW 32 44 17 24 1016.0 1016.4 0.0
23/07:39am 8.8 2.8 8.8 100 0.0 WNW 30 50 16 27 1015.6 1016.0 0.0
23/07:30am 8.7 3.1 8.7 100 0.0 WNW 28 43 15 23 1015.6 1016.0 0.0
23/07:00am 8.8 3.2 8.8 100 0.0 WNW 28 43 15 23 1015.3 1015.7 0.0
23/06:30am 8.9 3.0 8.9 100 0.0 WNW 30 46 16 25 1015.2 1015.6 0.0
23/06:20am 9.0 3.1 9.0 100 0.0 WNW 30 48 16 26 1015.1 1015.5 0.0
23/06:00am 9.1 2.6 9.1 100 0.0 WNW 33 48 18 26 1014.6 1015.1 0.0
23/05:30am 9.2 3.0 9.2 100 0.0 WNW 32 46 17 25 1014.6 1015.1 0.0
23/05:09am 9.2 2.8 9.2 100 0.0 W 33 52 18 28 1014.5 1015.0 0.0
23/05:00am 9.3 2.1 9.3 100 0.0 WNW 37 50 20 27 1014.4 1014.8 0.0
23/04:37am 9.4 3.2 9.4 100 0.0 WNW 32 50 17 27 1014.4 1014.8 0.0
23/04:30am 9.4 2.6 9.4 100 0.0 WNW 35 48 19 26 1014.2 1014.6 0.0
23/04:00am 9.4 3.2 9.4 100 0.0 WNW 32 46 17 25 1014.5 1015.0 0.0
23/03:30am 9.4 3.6 9.4 100 0.0 WNW 30 41 16 22 1014.6 1015.1 0.0
23/03:00am 9.2 3.7 9.2 100 0.0 WNW 28 41 15 22 1014.4 1014.8 0.0
23/02:30am 9.0 3.8 9.0 100 0.0 WNW 26 39 14 21 1014.4 1014.8 0.0
23/02:00am 8.8 3.2 8.8 100 0.0 WNW 28 37 15 20 1014.6 1015.1 0.0
23/01:30am 8.7 3.8 8.6 99 0.0 WNW 24 33 13 18 1014.7 1015.2 0.0
23/01:00am 8.5 3.4 7.6 94 0.4 WNW 24 33 13 18 1014.6 1015.1 0.0
23/12:30am 8.1 2.8 6.6 90 0.7 WNW 24 35 13 19 1014.6 1015.1 0.0
23/12:00am 7.9 2.2 5.0 82 1.3 WNW 24 35 13 19 1014.6 1015.1 0.0
 
Date/Time
CST
Temp
°C
App
Temp
°C
Dew
Point
°C
Rel
Hum
%
Delta-T
°C
Wind Press
QNH
hPa
Press
MSL
hPa
Rain since
9am
mm
Dir  Spd
km/h
Gust
km/h
Spd
kts
Gust
kts
22/11:30pm 8.2 2.4 4.6 78 1.6 WNW 24 32 13 17 1014.7 1015.2 0.0
22/11:00pm 8.5 3.0 3.9 73 2.1 NW 22 30 12 16 1014.9 1015.4 0.0
22/10:30pm 9.0 2.7 3.6 69 2.4 WNW 26 33 14 18 1014.9 1015.4 0.0
22/10:00pm 9.4 3.0 3.2 65 2.8 WNW 26 35 14 19 1014.8 1015.3 0.0
22/09:30pm 10.1 3.3 2.9 61 3.2 NW 28 41 15 22 1014.7 1015.2 0.0
22/09:00pm 10.4 4.3 3.0 60 3.3 WNW 24 37 13 20 1014.7 1015.2 0.0
22/08:30pm 11.2 5.1 2.5 55 3.9 NW 24 33 13 18 1014.6 1015.1 0.0
22/08:00pm 11.2 5.4 2.5 55 3.9 NW 22 32 12 17 1014.6 1015.1 0.0
22/07:30pm 11.2 5.5 2.8 56 3.8 NNW 22 30 12 16 1014.7 1015.2 0.0
22/07:00pm 11.5 5.8 3.0 56 3.8 NNW 22 32 12 17 1014.7 1015.2 0.0
22/06:30pm 11.3 5.7 3.3 58 3.6 NNW 22 30 12 16 1014.5 1015.0 0.0
22/06:00pm 11.5 6.4 4.0 60 3.5 NNW 20 28 11 15 1014.4 1014.8 0.0
22/05:30pm 11.7 6.5 3.7 58 3.7 NNW 20 26 11 14 1014.1 1014.5 0.0
22/05:00pm 12.5 7.4 4.2 57 3.9 NNW 20 33 11 18 1014.0 1014.4 0.0
22/04:30pm 13.1 7.7 4.5 56 4.1 NNW 22 30 12 16 1013.9 1014.3 0.0
22/04:00pm 13.9 8.2 5.0 55 4.3 NW 24 37 13 20 1013.9 1014.3 0.0
22/03:30pm 14.0 7.6 5.1 55 4.3 NW 28 41 15 22 1013.8 1014.2 0.0
22/03:12pm 14.0 7.5 4.6 53 4.5 NW 28 46 15 25 1013.9 1014.3 0.0
22/03:00pm 14.1 6.7 4.1 51 4.7 NW 32 44 17 24 1013.8 1014.2 0.0
22/02:30pm 14.0 7.0 4.0 51 4.7 NW 30 46 16 25 1014.0 1014.4 0.0
22/02:00pm 14.8 9.2 5.6 54 4.5 NW 24 41 13 22 1014.2 1014.6 0.0
22/01:30pm 14.1 7.3 4.9 54 4.4 NW 30 43 16 23 1014.7 1015.2 0.0
22/01:00pm 13.9 7.5 5.3 56 4.2 NW 28 41 15 22 1015.3 1015.7 0.0
22/12:38pm 13.6 6.1 4.7 55 4.2 NW 33 52 18 28 1015.6 1016.0 0.0
22/12:30pm 13.3 5.3 3.9 53 4.4 NW 35 52 19 28 1015.7 1016.1 0.0
22/12:00pm 13.3 6.8 4.7 56 4.1 NW 28 50 15 27 1016.4 1016.9 0.0
22/11:47am 13.1 6.5 4.3 55 4.1 NW 28 48 15 26 1016.7 1017.2 0.0
22/11:30am 12.9 5.7 4.8 58 3.8 NW 32 43 17 23 1017.2 1017.6 0.0
22/11:19am 12.9 5.9 4.3 56 4.0 NW 30 48 16 26 1017.4 1017.8 0.0
22/11:00am 12.6 4.6 3.8 55 4.1 NNW 35 52 19 28 1017.4 1017.8 0.0
22/10:33am 11.9 4.6 4.6 61 3.4 NW 32 50 17 27 1017.5 1017.9 0.0
22/10:30am 11.8 4.2 4.1 59 3.6 NW 33 50 18 27 1017.6 1018.0 0.0
22/10:08am 11.0 3.9 3.8 61 3.3 NW 30 48 16 26 1017.6 1018.0 0.0
22/10:00am 10.8 4.5 4.0 63 3.1 NW 26 41 14 22 1017.7 1018.1 0.0
22/09:35am 10.4 2.7 3.4 62 3.2 NW 33 52 18 28 1017.5 1017.9 0.0
22/09:30am 10.5 2.4 3.1 60 3.3 NW 35 52 19 28 1017.4 1017.8 0.0
22/09:12am 10.2 2.7 3.3 62 3.1 NW 32 50 17 27 1017.4 1017.8 0.0
22/09:00am 9.6 2.5 3.4 65 2.8 NW 30 41 16 22 1017.4 1017.8 0.0
22/08:30am 8.8 1.6 2.8 66 2.6 NW 30 41 16 22 1017.3 1017.7 0.0
22/08:00am 8.1 1.6 2.6 68 2.4 NW 26 37 14 20 1017.5 1017.9 0.0
22/07:30am 8.0 1.5 2.5 68 2.4 NW 26 35 14 19 1017.5 1017.9 0.0
22/07:00am 8.5 1.6 2.3 65 2.7 NW 28 37 15 20 1017.3 1017.7 0.0
22/06:30am 8.7 1.7 2.1 63 2.8 NW 28 41 15 22 1017.3 1017.7 0.0
22/06:00am 8.8 1.8 2.2 63 2.8 NW 28 44 15 24 1017.2 1017.6 0.0
22/05:30am 8.7 2.1 2.3 64 2.8 NW 26 37 14 20 1017.3 1017.7 0.0
22/05:00am 8.5 3.1 2.3 65 2.7 NW 20 33 11 18 1017.5 1017.9 0.0
22/04:30am 8.8 3.0 2.2 63 2.8 NW 22 32 12 17 1017.5 1017.9 0.0
22/04:00am 9.0 3.2 2.1 62 3.0 WNW 22 30 12 16 1017.8 1018.3 0.0
22/03:30am 9.3 3.8 1.9 60 3.2 WNW 20 30 11 16 1018.0 1018.5 0.0
22/03:00am 9.1 3.8 2.0 61 3.1 WNW 19 24 10 13 1018.0 1018.5 0.0
22/02:30am 10.0 4.5 1.9 57 3.5 NW 20 30 11 16 1017.8 1018.3 0.0
22/02:00am 10.5 5.2 1.6 54 3.9 NW 19 28 10 15 1017.7 1018.1 0.0
22/01:30am 10.9 6.0 1.7 53 4.0 NW 17 28 9 15 1017.9 1018.4 0.0
22/01:00am 11.7 5.8 1.4 49 4.5 N 22 28 12 15 1017.3 1017.7 0.0
22/12:30am 11.3 5.7 1.5 51 4.3 N 20 28 11 15 1017.5 1017.9 0.0
22/12:00am 10.7 5.8 1.8 54 3.9 NNE 17 20 9 11 1017.5 1017.9 0.0
 
Date/Time
CST
Temp
°C
App
Temp
°C
Dew
Point
°C
Rel
Hum
%
Delta-T
°C
Wind Press
QNH
hPa
Press
MSL
hPa
Rain since
9am
mm
Dir  Spd
km/h
Gust
km/h
Spd
kts
Gust
kts
21/11:30pm 10.6 5.1 1.9 55 3.8 NNE 20 28 11 15 1017.7 1018.1 0.0
21/11:00pm 10.3 4.5 2.4 58 3.5 NNE 22 28 12 15 1018.1 1018.6 0.0
21/10:30pm 10.5 5.2 2.8 59 3.4 NNE 20 30 11 16 1018.4 1018.9 0.0
21/10:00pm 10.6 5.3 2.9 59 3.4 NNE 20 28 11 15 1018.5 1019.0 0.0
21/09:30pm 10.5 5.3 3.3 61 3.2 NNE 20 32 11 17 1018.7 1019.2 0.0
21/09:00pm 10.3 5.4 4.0 65 2.9 NNE 19 30 10 16 1018.9 1019.4 0.0
21/08:30pm 9.9 5.4 4.3 68 2.6 NNE 17 22 9 12 1019.0 1019.5 0.0
21/08:00pm 9.6 5.2 4.6 71 2.3 NNE 17 22 9 12 1019.0 1019.5 0.0
21/07:30pm 9.8 5.0 4.8 71 2.3 NNE 19 20 10 11 1018.8 1019.3 0.0
21/07:00pm 10.1 6.2 5.3 72 2.3 NNE 15 20 8 11 1018.8 1019.3 0.0
21/06:30pm 10.1 5.9 5.5 73 2.2 N 17 20 9 11 1018.9 1019.4 0.0
21/06:00pm 10.6 6.0 5.6 71 2.4 NNW 19 24 10 13 1019.0 1019.5 0.0
21/05:30pm 10.8 6.1 5.1 68 2.7 NNW 19 30 10 16 1018.9 1019.4 0.0
21/05:00pm 11.4 6.6 5.5 67 2.8 NNW 20 30 11 16 1018.7 1019.2 0.0
21/04:30pm 12.2 7.4 5.6 64 3.2 NNW 20 33 11 18 1018.7 1019.2 0.0
21/04:00pm 12.5 7.6 5.2 61 3.5 NNW 20 32 11 17 1018.6 1019.1 0.0
21/03:30pm 12.7 7.1 5.4 61 3.5 NNW 24 32 13 17 1018.5 1019.0 0.0
21/03:00pm 13.2 8.7 6.1 62 3.5 NW 19 32 10 17 1018.7 1019.2 0.0
21/02:30pm 13.1 8.0 6.2 63 3.4 NNW 22 33 12 18 1018.5 1019.0 0.0
21/02:00pm 12.5 7.0 5.7 63 3.3 NNW 24 37 13 20 1018.5 1019.0 0.0
21/01:30pm 12.4 7.1 5.1 61 3.5 NW 22 32 12 17 1018.8 1019.3 0.0
21/01:00pm 12.2 6.8 4.7 60 3.5 NNW 22 32 12 17 1019.0 1019.5 0.0
21/12:30pm 12.0 5.9 5.0 62 3.3 NNW 26 39 14 21 1019.5 1020.0 0.0
21/12:00pm 11.7 6.1 5.6 66 2.9 NNW 24 33 13 18 1020.1 1020.6 0.0
21/11:30am 11.3 6.0 5.2 66 2.9 N 22 32 12 17 1020.5 1021.0 0.0
21/11:00am 11.0 6.1 5.3 68 2.7 N 20 32 11 17 1021.0 1021.6 0.0
21/10:30am 10.6 5.5 4.3 65 2.9 N 20 32 11 17 1021.3 1021.8 0.0
21/10:00am 10.3 5.8 4.2 66 2.8 N 17 24 9 13 1021.3 1021.8 0.0
21/09:30am 9.8 5.7 4.6 70 2.4 NNE 15 19 8 10 1021.2 1021.7 0.0
21/09:00am 8.6 3.9 3.2 69 2.4 NNE 17 20 9 11 1021.0 1021.6 0.0
21/08:30am 7.7 3.4 3.0 72 2.0 NNE 15 19 8 10 1020.8 1021.3 0.0
21/08:00am 6.9 1.7 2.4 73 1.9 NNE 19 22 10 12 1020.6 1021.1 0.0
21/07:30am 6.0 1.1 2.1 76 1.6 NNE 17 22 9 12 1020.3 1020.8 0.0
21/07:00am 5.9 0.7 2.2 77 1.6 NNE 19 22 10 12 1020.1 1020.6 0.0
21/06:30am 5.5 0.3 2.3 80 1.3 NNE 19 22 10 12 1020.0 1020.5 0.0
21/06:00am 5.6 0.8 2.4 80 1.3 NNE 17 20 9 11 1019.8 1020.3 0.0
21/05:30am 5.7 0.9 2.5 80 1.3 NNE 17 20 9 11 1019.7 1020.2 0.0
21/05:00am 5.6 1.3 3.1 84 1.1 NNE 15 22 8 12 1019.6 1020.1 0.0
21/04:30am 4.9 0.7 4.0 94 0.4 NE 15 20 8 11 1019.3 1019.7 0.0
21/04:00am 5.2 0.2 4.5 95 0.3 NNE 20 30 11 16 1019.4 1019.9 0.0
21/03:30am 4.8 -1.5 3.9 94 0.4 NE 26 35 14 19 1018.7 1019.2 0.0
21/03:00am 4.9 -0.9 4.2 95 0.3 NE 24 30 13 16 1019.3 1019.7 0.0
21/02:30am 4.8 -0.7 4.2 96 0.3 NE 22 28 12 15 1019.5 1020.0 0.0
21/02:00am 4.8 -0.7 3.9 94 0.4 NE 22 30 12 16 1019.7 1020.2 0.0
21/01:30am 5.0 -0.2 3.5 90 0.6 NE 20 28 11 15 1020.0 1020.5 0.0
21/01:00am 4.6 -0.4 3.4 92 0.5 NE 19 22 10 12 1020.0 1020.5 0.0
21/12:30am 4.7 0.0 3.4 91 0.6 NE 17 20 9 11 1020.2 1020.7 0.0
21/12:00am 5.2 0.2 3.5 89 0.7 NE 19 26 10 14 1020.2 1020.7 0.0
 
Date/Time
CST
Temp
°C
App
Temp
°C
Dew
Point
°C
Rel
Hum
%
Delta-T
°C
Wind Press
QNH
hPa
Press
MSL
hPa
Rain since
9am
mm
Dir  Spd
km/h
Gust
km/h
Spd
kts
Gust
kts
20/11:30pm 5.0 -0.5 3.8 92 0.5 ENE 22 26 12 14 1020.3 1020.8 0.0
20/11:00pm 5.3 0.2 4.1 92 0.5 ENE 20 26 11 14 1020.4 1020.9 0.0
20/10:30pm 5.5 0.0 4.2 91 0.6 ENE 22 28 12 15 1020.5 1021.0 0.0
20/10:00pm 5.6 0.6 4.4 92 0.5 ENE 20 24 11 13 1020.8 1021.3 0.0
20/09:30pm 5.5 0.5 4.8 95 0.3 ENE 20 24 11 13 1020.7 1021.2 0.0
20/09:00pm 5.2 0.5 5.1 99 0.0 E 19 22 10 12 1020.8 1021.3 0.0
20/08:30pm 5.8 1.1 5.2 96 0.3 E 19 22 10 12 1020.9 1021.5 0.0
20/08:00pm 5.7 0.9 4.5 92 0.5 E 19 24 10 13 1020.8 1021.3 0.0
20/07:30pm 6.1 1.6 4.4 89 0.8 ENE 17 22 9 12 1020.8 1021.3 0.0
20/07:00pm 6.6 2.2 4.8 88 0.8 ENE 17 22 9 12 1020.6 1021.1 0.0
20/06:30pm 6.7 3.5 4.9 88 0.8 ENE 11 13 6 7 1021.0 1021.6 0.0
20/06:00pm 7.2 3.6 5.0 86 1.0 NE 13 17 7 9 1020.8 1021.3 0.0
20/05:30pm 7.4 3.4 4.9 84 1.1 ENE 15 17 8 9 1020.4 1020.9 0.0
20/05:00pm 8.0 4.5 5.5 84 1.2 ENE 13 17 7 9 1020.2 1020.7 0.0
20/04:30pm 8.9 5.9 6.2 83 1.3 ENE 11 13 6 7 1020.2 1020.7 0.0
20/04:00pm 9.4 6.4 5.9 79 1.7 ENE 11 13 6 7 1020.1 1020.6 0.0
20/03:30pm 10.2 7.6 6.0 75 2.0 ENE 9 11 5 6 1020.5 1021.0 0.0
20/03:00pm 10.1 7.3 5.3 72 2.2 NE 9 13 5 7 1020.7 1021.2 0.0
20/02:30pm 10.3 6.8 5.3 71 2.3 NE 13 19 7 10 1020.6 1021.1 0.0
20/02:00pm 11.0 8.1 6.6 74 2.1 ENE 11 17 6 9 1020.7 1021.2 0.0
20/01:30pm 10.5 7.9 5.9 73 2.2 E 9 17 5 9 1020.9 1021.5 0.0
20/01:00pm 10.4 7.9 6.4 76 1.9 E 9 15 5 8 1021.4 1021.9 0.0
20/12:30pm 9.1 6.9 5.1 76 1.8 SSW 6 11 3 6 1022.2 1022.7 0.0
20/12:00pm 9.5 7.2 5.5 76 1.9 NNE 7 15 4 8 1022.7 1023.3 0.0
20/11:30am 9.8 7.5 5.8 76 1.9 ENE 7 13 4 7 1023.0 1023.6 0.0
20/11:00am 9.1 6.5 6.2 82 1.4 NE 9 17 5 9 1023.4 1023.9 0.0
20/10:30am 7.9 4.8 5.5 85 1.1 E 11 19 6 10 1023.5 1024.0 0.0
20/10:00am 8.2 5.3 6.7 90 0.7 ENE 11 15 6 8 1023.7 1024.2 0.0
20/09:30am 7.5 5.0 6.6 94 0.4 NE 9 11 5 6 1023.8 1024.3 0.0
20/09:00am 6.5 4.4 5.9 96 0.3 SE 6 9 3 5 1023.6 1024.1 0.0
20/08:30am 5.5 3.3 5.2 98 0.1 SE 6 7 3 4 1023.5 1024.0 0.0

Other Formats:

Comma delimited format used in spreadsheet applications
http://www.bom.gov.au/fwo/IDS60801/IDS60801.94678.axf

JavaScript Object Notation format (JSON) in row-major order
http://www.bom.gov.au/fwo/IDS60801/IDS60801.94678.json